Aeroporto :
LOGIN :

Iscrizione | Disclaimer

   EN    FR    IT 

 










Sommario :    VFR   VFR Marginale   IFR   IFR Intensivo   IFR Molto Intensivo
Visibilità : 
Base nubi : 
>= 8 km
>= 3000ft
5 / 8 km
1000 / 3000 ft
1500m / 5 km
500 / 1000 ft
800 / 1500m
200 / 500 ft
< 800m
< 200 ft
Simboli :   Temporali  Nebbia  Neve Forte  Precipitazioni Forti  Vento > 20 kt
SIGMETs :   Varie  Temporali  Ghiacco  Turbolenza  Onda orograficha  Ceneri Vulcaniche






- Altitudine del aeroporto : 375 ft
- Codice IATA : MST


EHBK - Maastricht Aachen

ULTIMO METAR :
  • 181155Z AUTO 24008KT 210V290 9999 SCT013 BKN015 BKN025 06/03 Q1025 TEMPO BKN014

METARs OBSOLETI :
  • 181125Z AUTO 24008KT 200V270 9999 SCT013 OVC016 05/03 Q1025 TEMPO BKN014
  • 181055Z AUTO 24009KT 190V290 9999 BKN013 OVC015 05/02 Q1025 TEMPO BKN014
  • 181025Z AUTO 24011KT 210V270 9999 FEW013 BKN015 OVC019 05/02 Q1025 TEMPO BKN014
  • 180955Z AUTO 23012KT 9999 FEW014 BKN017 BKN041 05/02 Q1025 TEMPO BKN014
  • 180925Z AUTO 24010KT 200V280 9999 FEW013 OVC015 04/02 Q1024 TEMPO BKN014

TAF TAF EHBK
Valido dal 18 a 12 ore il 19 a 18 ore UTC


181107Z 1812/1918 25010KT 9999 SCT020
BECMG 1812/1815 28010KT
PROB40
TEMPO 1812/1912 6000 SHRA SHRAGS BKN013 SCT018CB
PROB30
TEMPO 1900/1910 BKN008
BECMG 1903/1906 31008KT
BECMG 1909/1912 36010KT



MetMap, La meteo Aeronautica in un colpo d'occhio ! - Copyright ORBIFLY Dicembre 2007 - Disclaimer

ORBIFLY MET'MAP TEAM :

Programmazione e sviluppo : Alexandra Zaïnal
Concezione : Baudouin d'Aumeries
Aiuto per la programmazione : Marc-Olivier Méhu
Supporto tecnico e logistico : Manuel Goepfert
Aiuto per la traduzione : Arnaldo La Scala

Contatto : metmap@orbifly.com




FONTI E CREDITI :

   NOAA